National Weather Service Raw Text Product

Displaying AFOS PIL: TAFOTM Received: 2017-09-14 05:20 UTC


526 
FTUS43 KDMX 140520
TAFOTM
TAF
KOTM 140520Z 1406/1506 VRB04KT P6SM SKC
     FM141600 20011KT P6SM SCT150
     FM142100 20011G15KT P6SM SCT110 SCT250
     FM142300 17008KT P6SM SCT110 BKN200=